Time;durP1;ratioP1;P1;durP2;ratioP2;P2;SDS_P1;SDS_P2;PMS_P1;PMS_P2;Temp;Humidity;BMP_temperature;BMP_pressure;BME280_temperature;BME280_humidity;BME280_pressure;Samples;Min_cycle;Max_cycle;Signal;HPM_P1;HPM_P2
2022/02/15 00:00:38;;;;;;;28.30;21.37;;;;;;;1.25;100.00;96332.31;5000593;28;20610;-54
2022/02/15 00:03:08;;;;;;;14.80;13.30;;;;;;;1.22;100.00;96340.44;4973058;28;20730;-50
2022/02/15 00:05:36;;;;;;;9.80;9.00;;;;;;;1.25;100.00;96331.47;4987738;28;20947;-51
2022/02/15 00:08:04;;;;;;;11.03;9.83;;;;;;;1.26;100.00;96327.88;4966804;28;20439;-50
2022/02/15 00:10:33;;;;;;;9.33;8.27;;;;;;;1.21;100.00;96319.69;4989470;28;20302;-53
2022/02/15 00:13:02;;;;;;;10.50;9.43;;;;;;;1.30;100.00;96339.66;4986009;28;20606;-49
2022/02/15 00:15:32;;;;;;;9.87;8.30;;;;;;;1.33;100.00;96342.03;4955215;28;20600;-55
2022/02/15 00:18:00;;;;;;;10.13;9.13;;;;;;;1.29;100.00;96338.88;4982571;28;20271;-53
2022/02/15 00:20:28;;;;;;;9.27;8.33;;;;;;;1.34;100.00;96335.00;4996552;28;20773;-49
2022/02/15 00:22:56;;;;;;;9.73;8.60;;;;;;;1.43;100.00;96344.53;4989159;28;20463;-53
2022/02/15 00:25:24;;;;;;;14.77;8.70;;;;;;;1.55;100.00;96350.38;4978814;28;21201;-53
2022/02/15 00:27:53;;;;;;;8.63;7.77;;;;;;;1.70;100.00;96353.31;4987831;28;20386;-52
2022/02/15 00:30:21;;;;;;;9.80;8.73;;;;;;;1.67;100.00;96356.22;4953451;28;20244;-57
2022/02/15 00:32:53;;;;;;;10.13;7.53;;;;;;;1.78;100.00;96361.22;4974990;28;20929;-53
2022/02/15 00:35:21;;;;;;;8.87;8.03;;;;;;;1.77;100.00;96361.38;4995762;28;20292;-56
2022/02/15 00:37:50;;;;;;;9.27;8.47;;;;;;;1.81;100.00;96365.34;4984033;28;20308;-52
2022/02/15 00:40:18;;;;;;;9.47;8.33;;;;;;;1.77;100.00;96361.38;4978872;28;20248;-50
2022/02/15 00:42:47;;;;;;;8.83;7.93;;;;;;;1.77;100.00;96364.78;4984316;28;20650;-51
2022/02/15 00:45:15;;;;;;;9.20;8.30;;;;;;;1.65;100.00;96366.00;4950850;28;20222;-53
2022/02/15 00:47:43;;;;;;;10.80;8.27;;;;;;;1.60;100.00;96363.81;4994683;28;20487;-57
2022/02/15 00:50:13;;;;;;;9.13;8.33;;;;;;;1.59;100.00;96360.41;4976214;28;20428;-55
2022/02/15 00:52:41;;;;;;;10.10;9.10;;;;;;;1.47;100.00;96356.34;4977801;28;20325;-52
2022/02/15 00:55:13;;;;;;;11.70;9.80;;;;;;;1.44;100.00;96357.47;4975310;28;20216;-54
2022/02/15 00:57:41;;;;;;;11.27;9.30;;;;;;;1.44;100.00;96360.06;4988376;28;20506;-53
2022/02/15 01:00:10;;;;;;;11.13;9.20;;;;;;;1.50;100.00;96350.00;4951567;28;20886;-52
2022/02/15 01:02:38;;;;;;;10.73;9.00;;;;;;;1.38;100.00;96349.38;4989092;28;20347;-57
2022/02/15 01:05:08;;;;;;;9.67;8.80;;;;;;;1.54;100.00;96352.19;4970162;28;20570;-56
2022/02/15 01:07:38;;;;;;;10.27;9.30;;;;;;;1.63;100.00;96363.50;4984173;28;20237;-49
2022/02/15 01:10:07;;;;;;;10.20;9.27;;;;;;;1.47;100.00;96353.72;4986794;28;20502;-52
2022/02/15 01:12:35;;;;;;;14.87;8.20;;;;;;;1.55;100.00;96356.44;4976628;28;20788;-51
2022/02/15 01:15:05;;;;;;;8.50;7.70;;;;;;;1.43;100.00;96342.78;4985591;28;20302;-53
2022/02/15 01:17:33;;;;;;;10.47;8.40;;;;;;;1.44;100.00;96349.63;4952181;28;20267;-55
2022/02/15 01:20:01;;;;;;;9.40;8.50;;;;;;;1.48;100.00;96351.94;4974591;28;21034;-51
2022/02/15 01:22:29;;;;;;;10.63;7.90;;;;;;;1.53;100.00;96352.31;4981099;28;20323;-53
2022/02/15 01:24:59;;;;;;;8.27;7.53;;;;;;;1.66;100.00;96352.78;4990025;28;20288;-51
2022/02/15 01:27:27;;;;;;;9.57;8.53;;;;;;;1.80;100.00;96342.78;4973978;28;20611;-49
2022/02/15 01:29:55;;;;;;;8.67;7.97;;;;;;;1.67;100.00;96351.81;4985608;28;20671;-55
2022/02/15 01:32:23;;;;;;;10.00;9.00;;;;;;;1.55;100.00;96361.66;4949892;28;20661;-49
2022/02/15 01:34:51;;;;;;;9.37;8.37;;;;;;;1.96;100.00;96369.06;4982306;28;20522;-54
2022/02/15 01:37:19;;;;;;;9.00;8.10;;;;;;;1.77;100.00;96366.59;4971176;28;20237;-54
2022/02/15 01:39:48;;;;;;;9.43;8.50;;;;;;;1.54;100.00;96362.63;4969019;28;20220;-55
2022/02/15 01:42:19;;;;;;;12.10;8.60;;;;;;;1.48;100.00;96349.34;4989467;28;20307;-49
2022/02/15 01:44:47;;;;;;;10.93;9.53;;;;;;;1.34;100.00;96342.81;4970909;28;20547;-54
2022/02/15 01:47:23;;;;;;;10.23;9.20;;;;;;;1.44;100.00;96349.63;4953147;28;20482;-54
2022/02/15 01:49:51;;;;;;;11.93;9.37;;;;;;;1.35;100.00;96347.06;4986794;28;20312;-53
2022/02/15 01:52:20;;;;;;;10.17;8.83;;;;;;;1.37;100.00;96348.59;4972839;28;20231;-50
2022/02/15 01:54:50;;;;;;;12.23;9.77;;;;;;;1.29;100.00;96348.47;4966533;28;20926;-51
2022/02/15 01:57:20;;;;;;;9.77;8.87;;;;;;;1.25;100.00;96349.72;4990676;28;20298;-52
2022/02/15 01:59:48;;;;;;;10.00;8.53;;;;;;;1.26;100.00;96346.16;4972543;28;20940;-51
2022/02/15 02:02:16;;;;;;;10.07;9.07;;;;;;;1.33;100.00;96346.41;4953865;28;20822;-50
2022/02/15 02:07:30;;;;;;;10.70;9.23;;;;;;;1.22;100.00;96355.25;4972925;28;20301;-52
2022/02/15 02:09:58;;;;;;;9.67;8.77;;;;;;;1.19;100.00;96365.97;4972460;28;20857;-52
2022/02/15 02:12:27;;;;;;;10.07;9.07;;;;;;;1.34;100.00;96374.97;4986771;28;20773;-52
2022/02/15 02:14:59;;;;;;;11.07;8.97;;;;;;;1.60;100.00;96374.25;4973128;28;20319;-54
2022/02/15 02:17:28;;;;;;;10.10;9.10;;;;;;;1.79;100.00;96382.94;4953468;28;20359;-57
2022/02/15 02:19:57;;;;;;;9.73;8.83;;;;;;;1.59;100.00;96378.69;4988896;28;20529;-53
2022/02/15 02:22:28;;;;;;;11.00;9.50;;;;;;;1.58;100.00;96381.41;4973959;28;20278;-55
2022/02/15 02:24:58;;;;;;;9.60;8.60;;;;;;;1.38;100.00;96385.94;4980079;28;20759;-51
2022/02/15 02:28:22;;;;;;;12.10;9.53;;;;;;;1.29;100.00;96388.47;4978990;28;20668;-53
2022/02/15 02:30:50;;;;;;;10.47;9.43;;;;;;;1.15;100.00;96392.38;4967458;28;20220;-54
2022/02/15 02:33:18;;;;;;;9.97;8.97;;;;;;;1.17;100.00;96392.22;4949253;28;20635;-55
2022/02/15 02:35:47;;;;;;;10.30;9.00;;;;;;;1.21;100.00;96387.53;4982910;28;20660;-53
2022/02/15 02:38:16;;;;;;;10.00;9.10;;;;;;;1.08;100.00;96390.47;4968558;28;20204;-59
2022/02/15 02:40:45;;;;;;;10.63;8.97;;;;;;;1.24;100.00;96395.06;4974427;28;20307;-53
2022/02/15 02:43:13;;;;;;;10.87;9.87;;;;;;;1.15;100.00;96387.16;4983128;28;20243;-53
2022/02/15 02:45:41;;;;;;;11.73;9.77;;;;;;;1.13;100.00;96396.91;4987309;28;20305;-57
2022/02/15 02:48:09;;;;;;;10.40;9.43;;;;;;;1.10;100.00;96404.19;4934170;28;20220;-53
2022/02/15 02:50:38;;;;;;;9.70;8.83;;;;;;;1.12;100.00;96391.81;4990417;28;20298;-53
2022/02/15 02:53:10;;;;;;;10.07;9.03;;;;;;;1.10;100.00;96391.97;4975306;28;20229;-53
2022/02/15 02:55:39;;;;;;;10.47;9.30;;;;;;;1.17;100.00;96388.78;4996265;28;20317;-54
2022/02/15 02:58:07;;;;;;;10.63;9.63;;;;;;;1.20;100.00;96388.50;4979414;28;20220;-55
2022/02/15 03:00:36;;;;;;;11.07;9.83;;;;;;;1.25;100.00;96387.09;4988650;28;20205;-51
2022/02/15 03:03:07;;;;;;;10.27;9.27;;;;;;;1.25;100.00;96387.09;4976127;28;20233;-54
2022/02/15 03:05:35;;;;;;;10.70;9.20;;;;;;;1.22;100.00;96390.00;4960871;28;20701;-50
2022/02/15 03:08:04;;;;;;;10.27;9.27;;;;;;;1.72;100.00;96383.53;4977230;28;20296;-56
2022/02/15 03:10:32;;;;;;;11.10;9.70;;;;;;;1.67;100.00;96385.75;4995503;28;20217;-54
2022/02/15 03:13:01;;;;;;;10.17;9.27;;;;;;;1.43;100.00;96386.31;4979395;28;20285;-57
2022/02/15 03:15:29;;;;;;;10.60;9.57;;;;;;;1.47;100.00;96386.84;4989122;28;20403;-53
2022/02/15 03:17:57;;;;;;;11.17;9.77;;;;;;;1.44;100.00;96394.00;4978594;28;20219;-54
2022/02/15 03:20:29;;;;;;;9.83;8.93;;;;;;;1.48;100.00;96404.97;4958621;28;20608;-52
2022/02/15 03:22:57;;;;;;;9.43;8.53;;;;;;;1.77;100.00;96405.78;4988664;28;20261;-55
2022/02/15 03:25:25;;;;;;;12.13;10.83;;;;;;;1.62;100.00;96405.47;4973191;28;20830;-51
2022/02/15 03:27:53;;;;;;;10.10;8.97;;;;;;;1.58;100.00;96415.38;4975528;28;20303;-57
2022/02/15 03:30:22;;;;;;;11.50;9.07;;;;;;;1.66;100.00;96420.66;4988041;28;20612;-53
2022/02/15 03:32:50;;;;;;;12.77;10.50;;;;;;;1.54;100.00;96421.84;4975764;28;20229;-54
2022/02/15 03:35:19;;;;;;;12.47;9.93;;;;;;;1.59;100.00;96420.44;4948723;28;20570;-50
2022/02/15 03:37:47;;;;;;;10.77;9.70;;;;;;;1.59;100.00;96430.91;4994753;28;20678;-53
2022/02/15 03:40:15;;;;;;;12.30;9.63;;;;;;;1.63;100.00;96433.22;4966245;28;20464;-54
2022/02/15 03:45:30;;;;;;;10.50;9.30;;;;;;;1.52;100.00;96435.06;4990680;28;20462;-51
2022/02/15 03:47:58;;;;;;;10.60;9.50;;;;;;;1.46;100.00;96446.06;4971786;28;20216;-54
2022/02/15 03:50:26;;;;;;;10.13;8.70;;;;;;;1.41;100.00;96440.47;4955249;28;20721;-51
2022/02/15 03:52:54;;;;;;;11.97;10.27;;;;;;;1.42;100.00;96440.31;4990997;28;20217;-56
2022/02/15 03:55:22;;;;;;;11.57;9.33;;;;;;;1.66;100.00;96446.78;4970922;28;20729;-56
2022/02/15 03:57:50;;;;;;;10.70;9.70;;;;;;;1.56;100.00;96446.84;4993543;28;20720;-52
2022/02/15 04:00:18;;;;;;;10.23;9.23;;;;;;;1.41;100.00;96449.13;4974542;28;20212;-56
2022/02/15 04:02:48;;;;;;;10.33;9.37;;;;;;;1.33;100.00;96449.03;4981207;28;20240;-56
2022/02/15 04:05:16;;;;;;;9.93;9.13;;;;;;;1.24;100.00;96455.94;4966386;28;20589;-53
2022/02/15 04:07:44;;;;;;;11.33;10.23;;;;;;;1.30;100.00;96465.78;4948018;28;20733;-55
2022/02/15 04:10:12;;;;;;;13.00;10.07;;;;;;;1.33;100.00;96449.03;4949035;28;20219;-56
2022/02/15 04:12:43;;;;;;;12.10;10.20;;;;;;;1.36;100.00;96450.50;4989017;28;20557;-50
2022/02/15 04:15:11;;;;;;;11.00;9.90;;;;;;;1.47;100.00;96460.75;4973995;28;20213;-55
2022/02/15 04:17:39;;;;;;;12.00;9.37;;;;;;;1.26;100.00;96461.81;4987852;28;20375;-53
2022/02/15 04:20:10;;;;;;;10.63;9.43;;;;;;;1.26;100.00;96461.81;4957473;28;20211;-55
2022/02/15 04:22:43;;;;;;;11.87;9.97;;;;;;;1.19;100.00;96471.19;4941952;28;20229;-52
2022/02/15 04:25:11;;;;;;;10.77;9.53;;;;;;;1.13;100.00;96467.34;4962516;28;20454;-57
2022/02/15 04:27:39;;;;;;;14.37;10.07;;;;;;;1.32;100.00;96473.47;4983706;28;20988;-50
2022/02/15 04:30:09;;;;;;;11.27;10.07;;;;;;;1.20;100.00;96470.22;4984520;28;20777;-55
2022/02/15 04:32:37;;;;;;;10.90;9.83;;;;;;;1.27;100.00;96479.13;4982513;28;20592;-54
2022/02/15 04:35:06;;;;;;;10.50;9.47;;;;;;;1.30;100.00;96478.00;4971860;28;20220;-53
2022/02/15 04:37:36;;;;;;;11.50;10.27;;;;;;;1.40;100.00;96483.19;4947421;28;20875;-54
2022/02/15 04:40:05;;;;;;;16.23;10.70;;;;;;;1.43;100.00;96482.91;4997727;28;20209;-52
2022/02/15 04:42:33;;;;;;;12.00;10.03;;;;;;;1.51;100.00;96480.38;4971886;28;20512;-54
2022/02/15 04:45:01;;;;;;;14.33;11.17;;;;;;;1.49;100.00;96494.56;4988164;28;20216;-50
2022/02/15 04:47:29;;;;;;;11.33;10.20;;;;;;;1.44;100.00;96485.38;4960227;28;20498;-52
2022/02/15 04:49:57;;;;;;;11.00;9.90;;;;;;;1.40;100.00;96489.25;4968345;28;20194;-53
2022/02/15 04:52:25;;;;;;;12.40;11.13;;;;;;;1.38;100.00;96485.13;4972957;28;20225;-52
2022/02/15 04:54:54;;;;;;;12.00;10.80;;;;;;;1.30;100.00;96489.28;4959543;28;20603;-52
2022/02/15 04:57:22;;;;;;;12.03;10.53;;;;;;;1.33;100.00;96496.00;4980216;28;20276;-56
2022/02/15 04:59:50;;;;;;;13.53;12.23;;;;;;;1.31;100.00;96490.09;4993515;28;20202;-59
2022/02/15 05:02:18;;;;;;;14.00;12.33;;;;;;;1.34;100.00;96500.28;4983613;28;20330;-56
2022/02/15 05:04:49;;;;;;;12.53;11.33;;;;;;;1.23;100.00;96485.59;4985400;28;20838;-56
2022/02/15 05:07:17;;;;;;;11.67;10.27;;;;;;;1.26;100.00;96494.91;4954233;28;20216;-51
2022/02/15 05:09:45;;;;;;;13.63;10.50;;;;;;;1.22;100.00;96488.34;4948948;28;20689;-54
2022/02/15 05:12:15;;;;;;;13.37;11.33;;;;;;;1.18;100.00;96489.59;4974768;28;20616;-49
2022/02/15 05:14:43;;;;;;;11.57;9.97;;;;;;;1.24;100.00;96497.69;4989409;28;20717;-55
2022/02/15 05:17:11;;;;;;;13.10;11.03;;;;;;;1.13;100.00;96497.84;4986325;28;20513;-53
2022/02/15 05:19:40;;;;;;;12.10;10.97;;;;;;;1.23;100.00;96496.03;4988726;28;20728;-58
2022/02/15 05:22:08;;;;;;;13.53;10.83;;;;;;;1.04;100.00;96499.53;4969901;28;20235;-51
2022/02/15 05:24:36;;;;;;;12.57;11.13;;;;;;;1.08;100.00;96500.88;4935239;28;21234;-52
2022/02/15 05:27:05;;;;;;;12.53;11.33;;;;;;;1.13;100.00;96503.06;4984121;28;20220;-53
2022/02/15 05:29:35;;;;;;;12.83;11.63;;;;;;;1.03;100.00;96499.66;4964840;28;20212;-53
2022/02/15 05:32:03;;;;;;;12.73;11.27;;;;;;;1.14;100.00;96505.53;4989760;28;20223;-54
2022/02/15 05:34:31;;;;;;;12.20;11.00;;;;;;;1.13;100.00;96503.06;4984002;28;20211;-56
2022/02/15 05:36:59;;;;;;;11.67;10.53;;;;;;;1.10;100.00;96511.16;4971914;28;20217;-53
2022/02/15 05:39:27;;;;;;;12.80;11.57;;;;;;;1.12;100.00;96510.06;4946131;28;20225;-54
2022/02/15 05:41:58;;;;;;;14.83;11.70;;;;;;;1.11;100.00;96515.41;4992669;28;20208;-51
2022/02/15 05:44:26;;;;;;;14.23;12.13;;;;;;;1.15;100.00;96519.41;4967346;28;20602;-55
2022/02/15 05:46:55;;;;;;;13.93;12.57;;;;;;;0.99;100.00;96527.81;4992786;28;20205;-52
2022/02/15 05:49:23;;;;;;;13.30;12.00;;;;;;;0.98;100.00;96527.00;4971184;28;20713;-57
2022/02/15 05:51:54;;;;;;;13.83;12.50;;;;;;;1.00;100.00;96530.28;4973362;28;20208;-53
2022/02/15 05:54:22;;;;;;;14.37;12.37;;;;;;;1.10;100.00;96527.66;4974492;28;20213;-58
2022/02/15 05:56:50;;;;;;;14.03;12.70;;;;;;;1.14;100.00;96536.03;4958682;28;20205;-56
2022/02/15 05:59:18;;;;;;;13.00;11.70;;;;;;;1.06;100.00;96530.69;4966585;28;20202;-57
2022/02/15 06:01:46;;;;;;;14.40;12.77;;;;;;;0.98;100.00;96527.00;4991495;28;20305;-53
2022/02/15 06:04:15;;;;;;;13.50;12.20;;;;;;;0.93;100.00;96531.81;4975339;28;20235;-51
2022/02/15 06:06:43;;;;;;;15.00;11.60;;;;;;;0.91;100.00;96536.34;4983156;28;20205;-50
2022/02/15 06:09:11;;;;;;;14.03;12.67;;;;;;;0.94;100.00;96546.50;4972844;28;20210;-51
2022/02/15 06:11:39;;;;;;;14.93;12.80;;;;;;;0.96;100.00;96548.97;4946650;28;20852;-56
2022/02/15 06:14:07;;;;;;;14.20;12.77;;;;;;;0.99;100.00;96553.91;4991091;28;20799;-53
2022/02/15 06:16:35;;;;;;;15.73;12.97;;;;;;;1.03;100.00;96555.28;4965806;28;20328;-53
2022/02/15 06:19:05;;;;;;;14.70;13.13;;;;;;;1.01;100.00;96562.41;4987510;28;21175;-52
2022/02/15 06:21:34;;;;;;;13.90;12.60;;;;;;;1.03;100.00;96570.94;4970804;28;21242;-52
2022/02/15 06:24:02;;;;;;;17.17;13.73;;;;;;;0.94;100.00;96571.75;4968900;28;20343;-53
2022/02/15 06:26:50;;;;;;;16.83;13.70;;;;;;;0.90;100.00;96575.59;4987414;28;20212;-54
2022/02/15 06:29:18;;;;;;;15.87;13.77;;;;;;;1.04;100.00;96569.13;4941079;28;20309;-56
2022/02/15 06:31:46;;;;;;;16.63;14.90;;;;;;;0.94;100.00;96579.56;4984007;28;20361;-57
2022/02/15 06:34:15;;;;;;;15.90;13.57;;;;;;;1.06;100.00;96585.47;4990855;28;20205;-59
2022/02/15 06:36:44;;;;;;;17.03;14.40;;;;;;;1.08;100.00;96583.53;4982803;28;20744;-56
2022/02/15 06:39:12;;;;;;;16.77;15.07;;;;;;;1.18;100.00;96593.97;4978218;28;20581;-53
2022/02/15 06:41:40;;;;;;;15.10;13.20;;;;;;;1.18;100.00;96591.38;4975647;28;21042;-50
2022/02/15 06:44:08;;;;;;;17.80;15.17;;;;;;;1.26;100.00;96592.31;4952321;28;20233;-53
2022/02/15 06:46:37;;;;;;;21.83;14.73;;;;;;;1.33;100.00;96596.97;4976592;28;20209;-50
2022/02/15 06:49:05;;;;;;;19.03;15.07;;;;;;;1.40;100.00;96601.50;4991679;28;20519;-50
2022/02/15 06:51:33;;;;;;;27.20;22.03;;;;;;;1.38;100.00;96608.66;4980242;28;20308;-56
2022/02/15 06:54:02;;;;;;;17.37;15.57;;;;;;;1.55;100.00;96601.03;4974003;28;20235;-52
2022/02/15 06:56:30;;;;;;;19.63;15.63;;;;;;;1.48;100.00;96607.81;4973860;28;20427;-54
2022/02/15 06:58:58;;;;;;;17.53;14.97;;;;;;;1.48;100.00;96608.63;4958454;28;20208;-52
2022/02/15 07:01:26;;;;;;;17.50;15.67;;;;;;;1.72;100.00;96616.00;4981869;28;20307;-57
2022/02/15 07:03:54;;;;;;;18.77;16.70;;;;;;;1.62;100.00;96612.56;4981086;28;20239;-54
2022/02/15 07:06:22;;;;;;;24.40;15.77;;;;;;;1.73;100.00;96612.41;4990549;28;20217;-54
2022/02/15 07:08:50;;;;;;;18.97;16.93;;;;;;;1.78;100.00;96605.94;4960741;28;20228;-54
2022/02/15 07:11:22;;;;;;;25.50;19.60;;;;;;;1.83;100.00;96608.94;4980903;28;20260;-51
2022/02/15 07:13:52;;;;;;;23.77;17.77;;;;;;;1.75;100.00;96608.84;4990586;28;20247;-55
2022/02/15 07:16:20;;;;;;;18.70;16.70;;;;;;;1.96;100.00;96606.81;4967213;28;20212;-52
2022/02/15 07:18:48;;;;;;;24.03;18.70;;;;;;;2.07;100.00;96604.97;4982370;28;20669;-57
2022/02/15 07:21:17;;;;;;;27.80;17.97;;;;;;;2.05;100.00;96606.91;4989485;28;20288;-48
2022/02/15 07:23:45;;;;;;;23.43;18.73;;;;;;;2.11;100.00;96617.63;4963082;28;20808;-54
2022/02/15 07:26:13;;;;;;;22.97;19.20;;;;;;;2.08;100.00;96607.47;4977305;28;20217;-55
2022/02/15 07:28:42;;;;;;;21.73;17.73;;;;;;;2.11;100.00;96606.38;4986831;28;20222;-56
2022/02/15 07:31:11;;;;;;;26.97;17.77;;;;;;;2.22;100.00;96606.16;4958043;28;21527;-54
2022/02/15 07:33:39;;;;;;;24.43;18.03;;;;;;;2.24;100.00;96606.00;4980336;28;20716;-56
2022/02/15 07:36:07;;;;;;;26.77;18.73;;;;;;;2.38;100.00;96600.28;4990647;28;20208;-57
2022/02/15 07:38:35;;;;;;;24.43;20.13;;;;;;;2.57;100.00;96601.97;4975254;28;20223;-52
2022/02/15 07:41:03;;;;;;;19.37;17.37;;;;;;;2.63;100.00;96599.72;4949547;28;20243;-55
2022/02/15 07:43:31;;;;;;;18.67;16.77;;;;;;;2.78;100.00;96597.41;4989445;28;20315;-49
2022/02/15 07:46:01;;;;;;;20.73;18.27;;;;;;;2.92;100.00;96611.78;4991682;28;20308;-56
2022/02/15 07:48:29;;;;;;;22.80;18.53;;;;;;;3.06;100.00;96586.88;4953504;28;20229;-55
2022/02/15 07:50:57;;;;;;;19.93;17.83;;;;;;;3.15;100.00;96605.09;4974471;28;20404;-53
2022/02/15 07:53:25;;;;;;;18.00;15.50;;;;;;;3.36;100.00;96608.34;4981494;28;20805;-55
2022/02/15 07:55:53;;;;;;;20.43;17.87;;;;;;;3.15;100.00;96593.81;4962639;28;20621;-57
2022/02/15 07:58:21;;;;;;;19.13;17.23;;;;;;;3.29;100.00;96618.63;4986359;28;20525;-49
2022/02/15 08:00:49;;;;;;;22.77;18.83;;;;;;;3.40;100.00;96621.00;4983406;28;20319;-57
2022/02/15 08:03:19;;;;;;;20.73;18.53;;;;;;;3.25;100.00;96628.56;4951900;28;20239;-55
2022/02/15 08:05:47;;;;;;;18.20;16.50;;;;;;;3.39;100.00;96642.09;4971698;28;20233;-56
2022/02/15 08:08:17;;;;;;;19.67;17.43;;;;;;;3.25;100.00;96640.84;4995399;28;20201;-56
2022/02/15 08:10:47;;;;;;;21.47;19.33;;;;;;;3.42;100.00;96652.28;4973749;28;20217;-57
2022/02/15 08:13:18;;;;;;;19.60;17.63;;;;;;;3.36;100.00;96635.38;4979448;28;20248;-56
2022/02/15 08:15:48;;;;;;;18.93;16.97;;;;;;;3.69;100.00;96651.34;4987399;28;20202;-55
2022/02/15 08:18:18;;;;;;;21.67;18.70;;;;;;;3.62;100.00;96645.88;4950707;28;20212;-53
2022/02/15 08:20:47;;;;;;;19.47;16.40;;;;;;;3.61;100.00;96664.38;4976590;28;20209;-56
2022/02/15 08:23:16;;;;;;;18.87;16.97;;;;;;;3.46;100.00;96664.91;4988625;28;20226;-51
2022/02/15 08:25:45;;;;;;;22.10;17.17;;;;;;;3.79;100.00;96668.75;4971650;28;20676;-54
2022/02/15 08:28:14;;;;;;;19.57;17.10;;;;;;;3.76;100.00;96675.94;4976094;28;20409;-52
2022/02/15 08:30:42;;;;;;;20.67;18.33;;;;;;;3.88;100.00;96673.91;4992551;28;20208;-53
2022/02/15 08:33:10;;;;;;;22.87;18.13;;;;;;;3.83;100.00;96684.03;4985377;28;20220;-49
2022/02/15 08:35:39;;;;;;;20.30;18.13;;;;;;;3.82;100.00;96681.53;4938186;28;20217;-54
2022/02/15 08:38:08;;;;;;;19.90;18.00;;;;;;;3.96;100.00;96680.97;4982198;28;20870;-51
2022/02/15 08:40:36;;;;;;;19.23;17.37;;;;;;;4.08;100.00;96689.41;4974435;28;20536;-56
2022/02/15 08:43:04;;;;;;;20.23;18.13;;;;;;;3.95;100.00;96684.56;4970406;28;20617;-54
2022/02/15 08:45:32;;;;;;;21.30;18.73;;;;;;;3.57;100.00;96679.56;4981418;28;20229;-52
2022/02/15 08:48:00;;;;;;;18.80;16.93;;;;;;;3.66;100.00;96687.50;4985995;28;20326;-51
2022/02/15 08:50:28;;;;;;;23.80;20.10;;;;;;;3.45;100.00;96693.91;4952323;28;20213;-54
2022/02/15 08:52:57;;;;;;;22.47;19.90;;;;;;;3.56;100.00;96690.19;4974855;28;20265;-55
2022/02/15 08:55:25;;;;;;;21.23;18.77;;;;;;;3.75;100.00;96694.44;4988168;28;20205;-52
2022/02/15 08:57:53;;;;;;;22.67;19.57;;;;;;;3.72;100.00;96690.31;4961536;28;20210;-57
2022/02/15 09:00:21;;;;;;;22.87;18.80;;;;;;;3.83;100.00;96694.50;4987577;28;20693;-50
2022/02/15 09:02:49;;;;;;;21.43;19.13;;;;;;;4.07;100.00;96703.47;4985505;28;20218;-54
2022/02/15 09:05:17;;;;;;;20.60;18.10;;;;;;;4.21;100.00;96691.59;4953570;28;20247;-55
2022/02/15 09:07:48;;;;;;;23.63;18.13;;;;;;;4.29;100.00;96694.25;4981608;28;20208;-53
2022/02/15 09:10:18;;;;;;;21.17;19.07;;;;;;;4.16;100.00;96701.75;4991897;28;20216;-51
2022/02/15 09:12:49;;;;;;;20.33;18.23;;;;;;;3.96;100.00;96693.28;4974174;28;20236;-52
2022/02/15 09:15:18;;;;;;;23.37;17.60;;;;;;;4.17;100.00;96695.53;4973367;28;20307;-48
2022/02/15 09:18:06;;;;;;;21.50;18.53;;;;;;;3.96;100.00;96691.44;4984817;28;20449;-50
2022/02/15 09:20:36;;;;;;;20.77;16.43;;;;;;;4.09;100.00;96698.91;4986761;28;20581;-53
2022/02/15 09:23:04;;;;;;;20.23;18.23;;;;;;;4.23;100.00;96701.94;4957663;28;20677;-51
2022/02/15 09:25:34;;;;;;;22.70;17.63;;;;;;;4.28;100.00;96700.50;4988511;28;20233;-56
2022/02/15 09:28:02;;;;;;;24.43;19.67;;;;;;;4.49;100.00;96707.16;4972117;28;20719;-51
2022/02/15 09:30:30;;;;;;;20.27;18.03;;;;;;;4.71;100.00;96712.81;4970544;28;20208;-52
2022/02/15 09:32:58;;;;;;;19.03;17.33;;;;;;;4.83;100.00;96710.72;4984840;28;20229;-56
2022/02/15 09:35:26;;;;;;;20.77;18.50;;;;;;;4.85;100.00;96706.97;4987999;28;20205;-54
2022/02/15 09:37:56;;;;;;;21.23;18.93;;;;;;;4.90;100.00;96709.94;4954884;28;20239;-50
2022/02/15 09:40:24;;;;;;;21.13;17.17;;;;;;;5.22;100.00;96700.50;4986278;28;20209;-54
2022/02/15 09:42:55;;;;;;;20.33;18.33;;;;;;;5.33;100.00;96706.41;4964902;28;20436;-55
2022/02/15 09:45:23;;;;;;;19.60;17.50;;;;;;;5.36;100.00;96713.97;4977658;28;20530;-51
2022/02/15 09:47:53;;;;;;;20.53;17.03;;;;;;;5.19;100.00;96715.75;4984856;28;20578;-54
2022/02/15 09:50:21;;;;;;;19.87;17.80;;;;;;;5.38;100.00;96717.25;4982219;28;20870;-49
2022/02/15 09:52:54;;;;;;;28.90;25.07;;;;;;;5.31;100.00;96722.34;4954008;28;20226;-51
2022/02/15 09:55:22;;;;;;;20.80;18.63;;;;;;;5.26;100.00;96719.34;4991346;28;20215;-55
2022/02/15 09:57:50;;;;;;;22.33;19.17;;;;;;;5.30;100.00;96711.97;4977432;28;20213;-50
2022/02/15 10:00:22;;;;;;;21.33;18.70;;;;;;;5.35;100.00;96723.66;4970682;28;20313;-52
2022/02/15 10:02:50;;;;;;;20.70;17.27;;;;;;;5.15;100.00;96717.03;4982906;28;20225;-55
2022/02/15 10:05:20;;;;;;;19.13;17.10;;;;;;;5.14;100.00;96713.63;4983420;28;20225;-54
2022/02/15 10:08:08;;;;;;;24.07;17.87;;;;;;;5.49;100.00;96724.81;4985626;28;20452;-54
2022/02/15 10:10:37;;;;;;;19.03;17.07;;;;;;;5.78;100.00;96714.81;4953065;28;20591;-53
2022/02/15 10:13:08;;;;;;;21.03;17.90;;;;;;;6.37;100.00;96734.78;4974814;28;20501;-51
2022/02/15 10:15:41;;;;;;;19.27;17.27;;;;;;;6.34;100.00;96740.41;4987704;28;20213;-53
2022/02/15 10:18:11;;;;;;;23.20;18.60;;;;;;;6.37;100.00;96743.53;4976352;28;20652;-48
2022/02/15 10:20:43;;;;;;;18.10;16.10;;;;;;;6.61;100.00;96741.00;4985918;28;20213;-50
2022/02/15 10:23:18;;;;;;;18.70;16.83;;;;;;;6.83;100.00;96735.97;4985485;28;20417;-51
2022/02/15 10:25:47;;;;;;;18.50;16.80;;;;;;;7.00;100.00;96740.16;4947688;28;20796;-52
2022/02/15 10:28:16;;;;;;;17.87;15.97;;;;;;;6.86;100.00;96740.91;4978755;28;20219;-51
2022/02/15 10:30:46;;;;;;;18.37;16.40;;;;;;;6.84;100.00;96738.44;4986429;28;20578;-53
2022/02/15 10:33:15;;;;;;;17.70;15.93;;;;;;;6.76;100.00;96738.47;4969169;28;20221;-48
2022/02/15 10:35:53;;;;;;;17.37;15.30;;;;;;;6.64;100.00;96732.75;4983997;28;20219;-56
2022/02/15 10:38:31;;;;;;;19.90;17.73;;;;;;;6.75;100.00;96732.38;4984203;28;20212;-55
2022/02/15 10:41:01;;;;;;;20.20;17.90;;;;;;;6.27;100.00;96729.75;4948421;28;20212;-51
2022/02/15 10:43:42;;;;;;;20.00;15.87;;;;;;;6.34;100.00;96727.22;4982006;28;20232;-51
2022/02/15 10:46:12;;;;;;;18.37;16.53;;;;;;;6.11;100.00;96717.44;4975460;28;20292;-49
2022/02/15 10:48:40;;;;;;;16.90;15.13;;;;;;;6.31;100.00;96723.16;4972067;28;20582;-53
2022/02/15 10:51:09;;;;;;;18.13;16.20;;;;;;;6.26;100.00;96714.94;4985332;28;20402;-53
2022/02/15 10:53:55;;;;;;;18.10;14.87;;;;;;;6.42;100.00;96719.31;4985360;28;20816;-52
2022/02/15 10:56:46;;;;;;;16.23;14.63;;;;;;;6.65;100.00;96721.22;4953124;28;20213;-49
2022/02/15 10:59:15;;;;;;;17.67;16.00;;;;;;;6.79;100.00;96723.13;4974823;28;20208;-56
2022/02/15 11:01:46;;;;;;;19.43;16.17;;;;;;;6.95;100.00;96719.59;4983752;28;20224;-48
2022/02/15 11:04:15;;;;;;;16.37;14.87;;;;;;;6.86;100.00;96728.53;4969429;28;20220;-53
2022/02/15 11:06:42;;;;;;;17.90;16.10;;;;;;;7.08;100.00;96726.16;4983717;28;20225;-55
2022/02/15 11:09:13;;;;;;;16.80;15.20;;;;;;;7.17;100.00;96727.72;4983799;28;20212;-55
2022/02/15 11:11:52;;;;;;;16.53;15.00;;;;;;;7.14;100.00;96725.44;4961661;28;20220;-52
2022/02/15 11:14:20;;;;;;;19.67;16.47;;;;;;;7.59;100.00;96716.91;4976572;28;20382;-51
2022/02/15 11:16:52;;;;;;;17.77;15.93;;;;;;;7.30;100.00;96721.91;4984210;28;20233;-60
2022/02/15 11:19:21;;;;;;;17.63;15.33;;;;;;;7.52;100.00;96714.16;4968099;28;23363;-49
2022/02/15 11:21:55;;;;;;;17.27;15.67;;;;;;;7.33;100.00;96716.28;4990099;28;20707;-53
2022/02/15 11:24:23;;;;;;;17.63;15.80;;;;;;;7.24;100.00;96714.69;4989213;28;20236;-48
2022/02/15 11:26:51;;;;;;;16.90;15.20;;;;;;;7.26;100.00;96717.13;4949790;28;20770;-49
2022/02/15 11:29:20;;;;;;;17.43;15.67;;;;;;;7.53;100.00;96721.91;4974889;28;20228;-54
2022/02/15 11:31:49;;;;;;;17.87;16.17;;;;;;;7.57;100.00;96718.91;4978572;28;20248;-51
2022/02/15 11:34:29;;;;;;;18.83;17.13;;;;;;;7.46;100.00;96720.13;4988163;28;20444;-55
2022/02/15 11:37:00;;;;;;;16.80;15.10;;;;;;;7.50;100.00;96716.97;4972946;28;20292;-56